Fonthida Naree — HSJR — position and weather

sailwx.info

Track history (hours):
 
Tides and Currents Weather Stations Pressure Air Temp Water Temp Dewpoint Dewpoint Depression Visibility Wind Speed Wind Dir Waves Ship Positions

Fonthida Naree

Last reported at 2015-Mar-01 22:32 UTC. Time now 2015-Mar-02 20:29 UTC.
Position N 55°33' E 015°15'.

Length 170 m; draft 5.7 m.

Type: Cargo ship. MMSI: 567265000.

Date/timePositionNaut miles runAvg speedWind from/ knotsBaromVisibWave heightAir tempDewpointWater temp
2015-Mar-01 22:32N 55°33' E 015°15'1212.5
2015-Mar-01 21:33N 55°28' E 014°56'1312.6
2015-Mar-01 20:34N 55°22' E 014°36'1312.9
2015-Mar-01 19:34N 55°12' E 014°22'1111.3
2015-Mar-01 18:33N 55°10' E 014°02'1312.4
2015-Mar-01 17:29N 55°11' E 013°39'1212.6
2015-Mar-01 16:33N 55°13' E 013°19'1312.6
2015-Mar-01 15:34N 55°14' E 012°57'1211.6
2015-Mar-01 14:33N 55°18' E 012°38'1111.3
2015-Mar-01 13:33N 55°30' E 012°41'8 8.0
2015-Mar-01 12:33N 55°38' E 012°42'8 8.4
2015-Mar-01 11:33N 55°46' E 012°41'9 9.4
2015-Mar-01 10:34N 55°55' E 012°38'9 8.7
2015-Mar-01 09:33N 56°04' E 012°37'7 6.6
2015-Mar-01 08:33N 56°08' E 012°28'1110.6
2015-Mar-01 07:33N 56°14' E 012°12'20 9.9
2015-Mar-01 05:31N 56°32' E 011°57'1110.9
2015-Mar-01 04:33N 56°43' E 011°53'1010.2
2015-Mar-01 03:33N 56°52' E 011°47'1010.4
2015-Mar-01 02:33N 57°02' E 011°41'1010.6
2015-Mar-01 01:33N 57°12' E 011°34'1010.2
2015-Mar-01 00:34N 57°21' E 011°28'10 9.5
2015-Feb-28 23:33N 57°30' E 011°18'10 9.8
2015-Feb-28 22:33N 57°36' E 011°05'1010.0
2015-Feb-28 21:33N 57°44' E 010°52'1110.6
2015-Feb-28 20:29N 57°50' E 010°35'10012.3
2015-Feb-28 12:19N 57°01' E 007°53'9912.5
2015-Feb-28 04:25N 55°29' E 006°50'1112.4
2015-Feb-28 03:33N 55°18' E 006°50'1212.5
2015-Feb-28 02:33N 55°05' E 006°50'1110.7
2015-Feb-28 01:32N 54°55' E 006°51'2411.9
2015-Feb-27 23:31N 54°33' E 007°10'1212.2
2015-Feb-27 22:33N 54°23' E 007°19'1312.6
2015-Feb-27 21:33N 54°12' E 007°29'1312.5
2015-Feb-27 20:33N 54°00' E 007°39'1111.4
2015-Feb-27 19:33N 53°52' E 007°53'1211.7
2015-Feb-27 18:33N 53°47' E 008°10'1111.2
2015-Feb-27 17:33N 53°39' E 008°24'9 8.8
2015-Feb-27 16:33N 53°33' E 008°34'7 7.3
2015-Feb-27 15:33N 53°26' E 008°30'4 4.1
2015-Feb-27 14:31N 53°21' E 008°30'0 0.0
2015-Feb-27 13:31N 53°21' E 008°30'0 0.0
2015-Feb-27 12:31N 53°21' E 008°30'0 0.0
2015-Feb-27 11:31N 53°21' E 008°30'0 0.0
2015-Feb-27 10:28N 53°21' E 008°30'0 0.0
2015-Feb-27 09:28N 53°21' E 008°30'0 0.0
2015-Feb-27 08:25N 53°21' E 008°30'0 0.0
2015-Feb-27 07:31N 53°21' E 008°30'0 0.0
2015-Feb-27 06:31N 53°21' E 008°30'0 0.0
2015-Feb-27 05:31N 53°21' E 008°30'0 0.0
2015-Feb-27 04:28N 53°21' E 008°30'0 0.0
2015-Feb-27 03:31N 53°21' E 008°30'0 0.0
2015-Feb-27 02:31N 53°21' E 008°30'0 0.0
2015-Feb-27 01:31N 53°21' E 008°30'0 0.0
2015-Feb-27 00:28N 53°21' E 008°30'0 0.0
2015-Feb-26 23:28N 53°21' E 008°30'0 0.0
2015-Feb-26 22:31N 53°21' E 008°30'0 0.0
2015-Feb-26 21:31N 53°21' E 008°30'0 0.0
2015-Feb-26 20:28N 53°21' E 008°30'0 0.0
2015-Feb-26 19:31N 53°21' E 008°30'0 0.0
2015-Feb-26 18:31N 53°21' E 008°30'0 0.0
2015-Feb-26 17:31N 53°21' E 008°30'0 0.0
2015-Feb-26 16:28N 53°21' E 008°30'0 0.0
2015-Feb-26 15:31N 53°21' E 008°30'0 0.0
2015-Feb-26 14:31N 53°21' E 008°30'0 0.0
2015-Feb-26 13:25N 53°21' E 008°30'0 0.0
2015-Feb-26 12:31N 53°21' E 008°30'0 0.0
2015-Feb-26 11:31N 53°21' E 008°30'0 0.0
2015-Feb-26 10:31N 53°21' E 008°30'0 0.0
2015-Feb-26 09:31N 53°21' E 008°30'0 0.0
2015-Feb-26 08:31N 53°21' E 008°30'0 0.0
2015-Feb-26 07:31N 53°21' E 008°30'0 0.0
2015-Feb-26 06:31N 53°21' E 008°30'0 0.0
2015-Feb-26 05:28N 53°21' E 008°30'0 0.0
2015-Feb-26 04:31N 53°21' E 008°30'0 0.0
2015-Feb-26 03:31N 53°21' E 008°30'0 0.0
2015-Feb-26 02:31N 53°21' E 008°30'0 0.0
2015-Feb-26 01:31N 53°21' E 008°30'0 0.0
2015-Feb-26 00:31N 53°21' E 008°30'0 0.0
2015-Feb-25 23:31N 53°21' E 008°30'0 0.0
2015-Feb-25 22:28N 53°21' E 008°30'0 0.0
2015-Feb-25 21:31N 53°21' E 008°30'0 0.0
2015-Feb-25 20:31N 53°21' E 008°30'0 0.0
2015-Feb-25 19:31N 53°21' E 008°30'0 0.0
2015-Feb-25 18:31N 53°21' E 008°30'0 0.0
2015-Feb-25 17:28N 53°21' E 008°30'0 0.0
2015-Feb-25 16:31N 53°21' E 008°30'3 2.9
2015-Feb-25 15:33N 53°24' E 008°30'8 8.0
2015-Feb-25 14:33N 53°32' E 008°34'1212.2
2015-Feb-25 13:34N 53°41' E 008°21'1413.7
2015-Feb-25 12:33N 53°50' E 008°04'1111.1
2015-Feb-25 11:32N 53°53' E 007°45'1110.0
2015-Feb-25 10:28N 53°54' E 007°27'1211.4
2015-Feb-25 09:24N 53°51' E 007°07'4210.5
2015-Feb-25 05:23N 53°40' E 005°58'910.7
2015-Feb-25 04:33N 53°38' E 005°44'1110.9
2015-Feb-25 03:33N 53°34' E 005°26'1111.1
2015-Feb-25 02:33N 53°30' E 005°09'1211.5
2015-Feb-25 01:33N 53°26' E 004°51'1110.2
2015-Feb-25 00:32N 53°18' E 004°38'12612.0
2015-Feb-24 14:03N 51°40' E 002°29'510.8
2015-Feb-24 13:33N 51°36' E 002°23'1010.0
2015-Feb-24 12:33N 51°28' E 002°14'1010.0
2015-Feb-24 11:34N 51°19' E 002°08'9 9.2
2015-Feb-24 10:33N 51°12' E 001°58'1010.1
2015-Feb-24 09:33N 51°06' E 001°45'1110.8
2015-Feb-24 08:33N 50°58' E 001°33'  
Track history (hours):
 
Tides and Currents Weather Stations Pressure Air Temp Water Temp Dewpoint Dewpoint Depression Visibility Wind Speed Wind Dir Waves Ship Positions

Fonthida Naree

Last reported at 2015-Mar-01 22:32 UTC. Time now 2015-Mar-02 20:29 UTC.
Position N 55°33' E 015°15'.

Length 170 m; draft 5.7 m.

Type: Cargo ship. MMSI: 567265000.

Date/timePositionNaut miles runAvg speedWind from/ knotsBaromVisibWave heightAir tempDewpointWater temp
2015-Mar-01 22:32N 55°33' E 015°15'1212.5
2015-Mar-01 21:33N 55°28' E 014°56'1312.6
2015-Mar-01 20:34N 55°22' E 014°36'1312.9
2015-Mar-01 19:34N 55°12' E 014°22'1111.3
2015-Mar-01 18:33N 55°10' E 014°02'1312.4
2015-Mar-01 17:29N 55°11' E 013°39'1212.6
2015-Mar-01 16:33N 55°13' E 013°19'1312.6
2015-Mar-01 15:34N 55°14' E 012°57'1211.6
2015-Mar-01 14:33N 55°18' E 012°38'1111.3
2015-Mar-01 13:33N 55°30' E 012°41'8 8.0
2015-Mar-01 12:33N 55°38' E 012°42'8 8.4
2015-Mar-01 11:33N 55°46' E 012°41'9 9.4
2015-Mar-01 10:34N 55°55' E 012°38'9 8.7
2015-Mar-01 09:33N 56°04' E 012°37'7 6.6
2015-Mar-01 08:33N 56°08' E 012°28'1110.6
2015-Mar-01 07:33N 56°14' E 012°12'20 9.9
2015-Mar-01 05:31N 56°32' E 011°57'1110.9
2015-Mar-01 04:33N 56°43' E 011°53'1010.2
2015-Mar-01 03:33N 56°52' E 011°47'1010.4
2015-Mar-01 02:33N 57°02' E 011°41'1010.6
2015-Mar-01 01:33N 57°12' E 011°34'1010.2
2015-Mar-01 00:34N 57°21' E 011°28'10 9.5
2015-Feb-28 23:33N 57°30' E 011°18'10 9.8
2015-Feb-28 22:33N 57°36' E 011°05'1010.0
2015-Feb-28 21:33N 57°44' E 010°52'1110.6
2015-Feb-28 20:29N 57°50' E 010°35'10012.3
2015-Feb-28 12:19N 57°01' E 007°53'9912.5
2015-Feb-28 04:25N 55°29' E 006°50'1112.4
2015-Feb-28 03:33N 55°18' E 006°50'1212.5
2015-Feb-28 02:33N 55°05' E 006°50'1110.7
2015-Feb-28 01:32N 54°55' E 006°51'2411.9
2015-Feb-27 23:31N 54°33' E 007°10'1212.2
2015-Feb-27 22:33N 54°23' E 007°19'1312.6
2015-Feb-27 21:33N 54°12' E 007°29'1312.5
2015-Feb-27 20:33N 54°00' E 007°39'1111.4
2015-Feb-27 19:33N 53°52' E 007°53'1211.7
2015-Feb-27 18:33N 53°47' E 008°10'1111.2
2015-Feb-27 17:33N 53°39' E 008°24'9 8.8
2015-Feb-27 16:33N 53°33' E 008°34'7 7.3
2015-Feb-27 15:33N 53°26' E 008°30'4 4.1
2015-Feb-27 14:31N 53°21' E 008°30'0 0.0
2015-Feb-27 13:31N 53°21' E 008°30'0 0.0
2015-Feb-27 12:31N 53°21' E 008°30'0 0.0
2015-Feb-27 11:31N 53°21' E 008°30'0 0.0
2015-Feb-27 10:28N 53°21' E 008°30'0 0.0
2015-Feb-27 09:28N 53°21' E 008°30'0 0.0
2015-Feb-27 08:25N 53°21' E 008°30'0 0.0
2015-Feb-27 07:31N 53°21' E 008°30'0 0.0
2015-Feb-27 06:31N 53°21' E 008°30'0 0.0
2015-Feb-27 05:31N 53°21' E 008°30'0 0.0
2015-Feb-27 04:28N 53°21' E 008°30'0 0.0
2015-Feb-27 03:31N 53°21' E 008°30'0 0.0
2015-Feb-27 02:31N 53°21' E 008°30'0 0.0
2015-Feb-27 01:31N 53°21' E 008°30'0 0.0
2015-Feb-27 00:28N 53°21' E 008°30'0 0.0
2015-Feb-26 23:28N 53°21' E 008°30'0 0.0
2015-Feb-26 22:31N 53°21' E 008°30'0 0.0
2015-Feb-26 21:31N 53°21' E 008°30'0 0.0
2015-Feb-26 20:28N 53°21' E 008°30'0 0.0
2015-Feb-26 19:31N 53°21' E 008°30'0 0.0
2015-Feb-26 18:31N 53°21' E 008°30'0 0.0
2015-Feb-26 17:31N 53°21' E 008°30'0 0.0
2015-Feb-26 16:28N 53°21' E 008°30'0 0.0
2015-Feb-26 15:31N 53°21' E 008°30'0 0.0
2015-Feb-26 14:31N 53°21' E 008°30'0 0.0
2015-Feb-26 13:25N 53°21' E 008°30'0 0.0
2015-Feb-26 12:31N 53°21' E 008°30'0 0.0
2015-Feb-26 11:31N 53°21' E 008°30'0 0.0
2015-Feb-26 10:31N 53°21' E 008°30'0 0.0
2015-Feb-26 09:31N 53°21' E 008°30'0 0.0
2015-Feb-26 08:31N 53°21' E 008°30'0 0.0
2015-Feb-26 07:31N 53°21' E 008°30'0 0.0
2015-Feb-26 06:31N 53°21' E 008°30'0 0.0
2015-Feb-26 05:28N 53°21' E 008°30'0 0.0
2015-Feb-26 04:31N 53°21' E 008°30'0 0.0
2015-Feb-26 03:31N 53°21' E 008°30'0 0.0
2015-Feb-26 02:31N 53°21' E 008°30'0 0.0
2015-Feb-26 01:31N 53°21' E 008°30'0 0.0
2015-Feb-26 00:31N 53°21' E 008°30'0 0.0
2015-Feb-25 23:31N 53°21' E 008°30'0 0.0
2015-Feb-25 22:28N 53°21' E 008°30'0 0.0
2015-Feb-25 21:31N 53°21' E 008°30'0 0.0
2015-Feb-25 20:31N 53°21' E 008°30'0 0.0
2015-Feb-25 19:31N 53°21' E 008°30'0 0.0
2015-Feb-25 18:31N 53°21' E 008°30'0 0.0
2015-Feb-25 17:28N 53°21' E 008°30'0 0.0
2015-Feb-25 16:31N 53°21' E 008°30'3 2.9
2015-Feb-25 15:33N 53°24' E 008°30'8 8.0
2015-Feb-25 14:33N 53°32' E 008°34'1212.2
2015-Feb-25 13:34N 53°41' E 008°21'1413.7
2015-Feb-25 12:33N 53°50' E 008°04'1111.1
2015-Feb-25 11:32N 53°53' E 007°45'1110.0
2015-Feb-25 10:28N 53°54' E 007°27'1211.4
2015-Feb-25 09:24N 53°51' E 007°07'4210.5
2015-Feb-25 05:23N 53°40' E 005°58'910.7
2015-Feb-25 04:33N 53°38' E 005°44'1110.9
2015-Feb-25 03:33N 53°34' E 005°26'1111.1
2015-Feb-25 02:33N 53°30' E 005°09'1211.5
2015-Feb-25 01:33N 53°26' E 004°51'1110.2
2015-Feb-25 00:32N 53°18' E 004°38'12612.0
2015-Feb-24 14:03N 51°40' E 002°29'510.8
2015-Feb-24 13:33N 51°36' E 002°23'1010.0
2015-Feb-24 12:33N 51°28' E 002°14'1010.0
2015-Feb-24 11:34N 51°19' E 002°08'9 9.2
2015-Feb-24 10:33N 51°12' E 001°58'1010.1
2015-Feb-24 09:33N 51°06' E 001°45'1110.8
2015-Feb-24 08:33N 50°58' E 001°33'  

Dump ship's entire track history